Terminal Aerodrome Forecast
Issued by NWS

Home | Current Version | Previous Version | Text Only | Print | Product List | Glossary On
Versions: 1 2 3 4 5 6 7 8 9 10 11 12 13 14 15
000
FTAK31 PAJN 240307 AAA
TAFAWG
TAF AMD
PAWG 240307Z 2403/2424 08011KT 6SM -RA BR FEW004 OVC025
     FM240600 12012KT 3SM -RA BR SCT006 OVC015
     FM241200 12008KT 3SM -RA BR OVC007
     FM241700 VRB05KT 6SM BR VCSH OVC015
      AMD LTD TO CLD VIS AND WIND 2406/2415=

USA.gov is the U.S. government's official web portal to all federal, state and local government web resources and services.